createdAt,value
2019-03-22T00:03:59.238Z,22.90
2019-03-22T00:09:06.275Z,22.90
2019-03-22T00:14:12.828Z,22.90
2019-03-22T00:19:20.028Z,22.90
2019-03-22T00:24:26.137Z,22.90
2019-03-22T00:29:32.788Z,22.90
2019-03-22T00:34:39.408Z,22.90
2019-03-22T00:39:45.838Z,22.90
2019-03-22T00:44:51.757Z,22.90
2019-03-22T00:49:58.880Z,22.90
2019-03-22T00:55:05.648Z,22.90
2019-03-22T01:00:11.878Z,22.90
2019-03-22T01:05:18.521Z,22.90
2019-03-22T01:10:24.718Z,22.90
2019-03-22T01:15:31.670Z,22.90
2019-03-22T01:20:37.671Z,22.90
2019-03-22T01:25:43.648Z,22.90
2019-03-22T01:30:50.190Z,22.90
2019-03-22T01:35:56.689Z,22.90
2019-03-22T01:41:02.689Z,22.80
2019-03-22T01:46:08.957Z,22.80
2019-03-22T01:51:14.858Z,22.80
2019-03-22T01:56:21.654Z,22.80
2019-03-22T02:01:28.917Z,22.80
2019-03-22T02:06:34.799Z,22.80
2019-03-22T02:11:41.170Z,22.80
2019-03-22T02:16:47.438Z,22.80
2019-03-22T02:21:53.623Z,22.80
2019-03-22T02:27:00.048Z,22.80
2019-03-22T02:32:06.425Z,22.80
2019-03-22T02:37:13.077Z,22.70
2019-03-22T02:42:20.660Z,22.80
2019-03-22T02:47:26.977Z,22.70
2019-03-22T02:52:33.148Z,22.70
2019-03-22T02:57:39.579Z,22.70
2019-03-22T03:02:47.306Z,22.70
2019-03-22T03:07:53.792Z,22.70
2019-03-22T03:12:59.952Z,22.70
2019-03-22T03:18:06.509Z,22.70
2019-03-22T03:23:12.741Z,22.70
2019-03-22T03:28:19.089Z,22.60
2019-03-22T03:33:25.511Z,22.60
2019-03-22T03:38:31.509Z,22.70
2019-03-22T03:43:37.978Z,22.60
2019-03-22T03:48:44.365Z,22.60
2019-03-22T03:53:51.764Z,22.60
2019-03-22T03:58:58.174Z,22.60
2019-03-22T04:04:04.473Z,22.60
2019-03-22T04:09:11.129Z,22.60
2019-03-22T04:14:17.829Z,22.60
2019-03-22T04:19:24.150Z,22.50
2019-03-22T04:24:30.402Z,22.50
2019-03-22T04:29:36.849Z,22.50
2019-03-22T04:34:43.143Z,22.50
2019-03-22T04:39:49.247Z,22.40
2019-03-22T04:44:55.628Z,22.50
2019-03-22T04:50:02.012Z,22.40
2019-03-22T04:55:08.338Z,22.40
2019-03-22T05:00:14.578Z,22.40
2019-03-22T05:05:21.138Z,22.40
2019-03-22T05:10:27.518Z,22.40
2019-03-22T05:15:33.639Z,22.30
2019-03-22T05:20:39.780Z,22.30
2019-03-22T05:25:46.038Z,22.30
2019-03-22T05:31:50.508Z,22.30
2019-03-22T05:36:56.889Z,22.30
2019-03-22T05:42:03.287Z,22.30
2019-03-22T05:47:09.869Z,22.30
2019-03-22T05:52:16.839Z,22.30
2019-03-22T05:57:23.128Z,22.20
2019-03-22T06:02:28.879Z,22.20
2019-03-22T06:07:36.990Z,22.20
2019-03-22T06:12:43.011Z,22.20
2019-03-22T06:17:51.918Z,22.20
2019-03-22T06:22:58.133Z,22.20
2019-03-22T06:28:04.639Z,22.20
2019-03-22T06:33:11.058Z,22.20
2019-03-22T06:38:17.489Z,22.20
2019-03-22T06:43:24.847Z,22.20
2019-03-22T06:48:31.108Z,22.10
2019-03-22T06:53:37.689Z,22.10
2019-03-22T06:58:44.068Z,22.10
2019-03-22T07:03:51.107Z,22.10
2019-03-22T07:08:57.959Z,22.00
2019-03-22T07:14:04.228Z,22.00
2019-03-22T07:19:10.697Z,21.90
2019-03-22T07:24:17.258Z,21.80
2019-03-22T07:29:23.647Z,21.70
2019-03-22T07:34:29.967Z,21.50
2019-03-22T07:39:36.988Z,21.50
2019-03-22T07:44:43.822Z,21.30
2019-03-22T07:49:50.588Z,21.30
2019-03-22T07:54:57.550Z,21.20
2019-03-22T08:00:04.017Z,21.30
2019-03-22T08:05:10.512Z,21.30
2019-03-22T08:10:16.903Z,21.40
2019-03-22T08:15:34.404Z,21.40
2019-03-22T08:20:41.018Z,21.50
2019-03-22T08:25:48.550Z,21.50
2019-03-22T08:30:55.367Z,21.60
2019-03-22T08:36:01.750Z,21.60
2019-03-22T08:41:08.139Z,21.70
2019-03-22T08:46:14.579Z,21.70
2019-03-22T08:51:20.849Z,21.70
2019-03-22T08:56:27.261Z,21.80
2019-03-22T09:01:33.530Z,21.80
2019-03-22T09:06:39.932Z,21.80
2019-03-22T09:11:46.460Z,21.80
2019-03-22T09:16:53.200Z,21.80
2019-03-22T09:21:59.865Z,21.90
2019-03-22T09:27:07.141Z,21.90
2019-03-22T09:32:13.581Z,21.90
2019-03-22T09:37:20.035Z,21.90
2019-03-22T09:42:27.079Z,21.90
2019-03-22T09:47:33.435Z,22.00
2019-03-22T09:52:40.340Z,22.00
2019-03-22T09:57:49.353Z,22.00
2019-03-22T10:02:54.608Z,22.00
2019-03-22T10:08:01.066Z,22.00
2019-03-22T10:13:07.432Z,22.00
2019-03-22T10:18:13.688Z,22.00
2019-03-22T10:23:22.326Z,22.00
2019-03-22T10:28:28.553Z,22.10
2019-03-22T10:33:35.117Z,22.10
2019-03-22T10:38:41.630Z,22.10
2019-03-22T10:43:48.174Z,22.10
2019-03-22T10:48:54.555Z,22.20
2019-03-22T10:54:00.958Z,22.20
2019-03-22T10:59:07.482Z,22.20
2019-03-22T11:04:13.829Z,22.20
2019-03-22T11:09:20.358Z,22.20
2019-03-22T11:14:26.858Z,22.20
2019-03-22T11:19:33.137Z,22.20
2019-03-22T11:24:39.608Z,22.20
2019-03-22T11:29:46.068Z,22.20
2019-03-22T11:34:52.557Z,22.30
2019-03-22T11:39:59.218Z,22.30
2019-03-22T11:45:06.618Z,22.30
2019-03-22T11:50:13.488Z,22.30
2019-03-22T11:55:19.856Z,22.30
2019-03-22T12:00:26.878Z,22.40
2019-03-22T12:05:40.329Z,22.30
2019-03-22T12:10:41.187Z,22.30
2019-03-22T12:15:47.619Z,22.40
2019-03-22T12:20:56.463Z,22.40
2019-03-22T12:26:02.767Z,22.40
2019-03-22T12:31:08.988Z,22.40
2019-03-22T12:36:15.508Z,22.40
2019-03-22T12:41:22.238Z,22.40
2019-03-22T12:46:29.059Z,22.40
2019-03-22T12:51:35.618Z,22.40
2019-03-22T12:56:42.218Z,22.40
2019-03-22T13:01:48.448Z,22.50
2019-03-22T13:06:54.728Z,22.50
2019-03-22T13:12:00.894Z,22.50
2019-03-22T13:17:07.700Z,22.50
2019-03-22T13:22:13.833Z,22.50
2019-03-22T13:27:19.990Z,22.60
2019-03-22T13:32:26.298Z,22.60
2019-03-22T13:37:32.918Z,22.50
2019-03-22T13:42:39.140Z,22.50
2019-03-22T13:47:45.547Z,22.50
2019-03-22T13:52:52.019Z,22.50
2019-03-22T13:57:58.298Z,22.50
2019-03-22T14:03:04.599Z,22.60
2019-03-22T14:08:11.039Z,22.60
2019-03-22T14:13:17.268Z,22.60
2019-03-22T14:18:23.808Z,22.70
2019-03-22T14:23:30.388Z,22.70
2019-03-22T14:28:37.508Z,22.70
2019-03-22T14:33:44.137Z,22.80
2019-03-22T14:38:51.129Z,22.80
2019-03-22T14:43:57.567Z,22.80
2019-03-22T14:49:03.738Z,22.80
2019-03-22T14:54:10.338Z,22.80
2019-03-22T14:59:16.948Z,22.80
2019-03-22T15:04:23.399Z,22.80
2019-03-22T15:09:29.879Z,22.80
2019-03-22T15:14:53.658Z,22.80
2019-03-22T15:20:18.803Z,22.90
2019-03-22T15:25:42.550Z,22.90
2019-03-22T15:31:10.698Z,22.90
2019-03-22T15:36:34.709Z,22.90
2019-03-22T15:41:41.692Z,22.90
2019-03-22T15:46:48.051Z,22.90
2019-03-22T15:51:54.738Z,22.90
2019-03-22T15:57:01.228Z,22.90
2019-03-22T16:02:08.071Z,22.90
2019-03-22T16:07:14.701Z,22.90
2019-03-22T16:12:21.884Z,22.90
2019-03-22T16:17:28.649Z,22.90
2019-03-22T16:22:34.921Z,22.90
2019-03-22T16:27:41.949Z,22.90
2019-03-22T16:32:48.638Z,22.90
2019-03-22T16:37:56.019Z,22.90
2019-03-22T16:43:02.728Z,22.90
2019-03-22T16:48:09.128Z,22.90
2019-03-22T16:53:15.579Z,22.90
2019-03-22T16:58:23.123Z,22.90
2019-03-22T17:03:29.508Z,22.90
2019-03-22T17:08:36.488Z,22.90
2019-03-22T17:13:42.819Z,22.90
2019-03-22T17:18:49.478Z,22.90
2019-03-22T17:23:56.218Z,22.90
2019-03-22T17:29:02.979Z,22.90
2019-03-22T17:34:14.138Z,22.90
2019-03-22T17:39:17.508Z,22.90
2019-03-22T17:44:23.777Z,22.90
2019-03-22T17:49:30.189Z,22.90
2019-03-22T17:54:36.218Z,22.90
2019-03-22T17:59:42.357Z,22.90
2019-03-22T18:04:48.638Z,22.90
2019-03-22T18:09:55.639Z,22.90
2019-03-22T18:15:03.379Z,22.90
2019-03-22T18:20:11.383Z,22.90
2019-03-22T18:25:17.919Z,22.90
2019-03-22T18:30:24.479Z,22.90
2019-03-22T18:35:31.078Z,22.90
2019-03-22T18:40:37.541Z,23.00
2019-03-22T18:45:44.319Z,23.00
2019-03-22T18:50:56.665Z,23.00
2019-03-22T18:55:58.859Z,23.00
2019-03-22T19:01:05.249Z,23.10
2019-03-22T19:06:11.539Z,23.10
2019-03-22T19:11:17.979Z,23.20
2019-03-22T19:16:24.449Z,23.10
2019-03-22T19:21:31.538Z,23.10
2019-03-22T19:26:37.968Z,23.20
2019-03-22T19:31:44.508Z,23.20
2019-03-22T19:36:51.049Z,23.20
2019-03-22T19:41:57.501Z,23.20
2019-03-22T19:47:04.890Z,23.20
2019-03-22T19:52:11.558Z,23.20
2019-03-22T19:57:18.261Z,23.10
2019-03-22T20:02:24.580Z,23.20
2019-03-22T20:07:32.149Z,23.20
2019-03-22T20:12:39.579Z,23.20
2019-03-22T20:17:47.188Z,23.20
2019-03-22T20:22:54.179Z,23.20
2019-03-22T20:28:00.644Z,23.20
2019-03-22T20:33:07.430Z,23.20
2019-03-22T20:38:14.198Z,23.20
2019-03-22T20:43:21.314Z,23.20
2019-03-22T20:48:28.258Z,23.20
2019-03-22T20:53:34.711Z,23.20
2019-03-22T20:58:42.383Z,23.20
2019-03-22T21:03:48.759Z,23.30
2019-03-22T21:08:55.122Z,23.20
2019-03-22T21:14:01.749Z,23.20
2019-03-22T21:19:07.709Z,23.30
2019-03-22T21:24:14.050Z,23.30
2019-03-22T21:29:20.607Z,23.30
2019-03-22T21:34:27.316Z,23.30
2019-03-22T21:39:33.632Z,23.20
2019-03-22T21:44:40.110Z,23.20
2019-03-22T21:49:46.881Z,23.30
2019-03-22T21:54:52.909Z,23.20
2019-03-22T21:59:59.518Z,23.20
2019-03-22T22:05:07.901Z,23.30
2019-03-22T22:10:13.986Z,23.20
2019-03-22T22:15:20.338Z,23.20
2019-03-22T22:20:29.079Z,23.30
2019-03-22T22:25:34.845Z,23.30
2019-03-22T22:30:41.484Z,23.30
2019-03-22T22:35:58.004Z,23.20
2019-03-22T22:40:55.609Z,23.30
2019-03-22T22:46:02.203Z,23.20
2019-03-22T22:51:09.056Z,23.20
2019-03-22T22:56:15.394Z,23.30
2019-03-22T23:01:21.971Z,23.20
2019-03-22T23:06:46.992Z,23.20
2019-03-22T23:11:53.134Z,23.20
2019-03-22T23:16:59.466Z,23.20
2019-03-22T23:22:06.099Z,23.20
2019-03-22T23:27:13.033Z,23.20
2019-03-22T23:32:19.724Z,23.20
2019-03-22T23:37:26.189Z,23.20
2019-03-22T23:42:32.649Z,23.20
2019-03-22T23:47:38.968Z,23.20
2019-03-22T23:52:45.251Z,23.20
2019-03-22T23:57:51.792Z,23.20
